Time,TemperatureF,DewpointF,PressureIn,WindDirection,WindDirectionDegrees,WindSpeedMPH,WindSpeedGustMPH,Humidity,HourlyPrecipIn,Conditions,Clouds,dailyrainin,SolarRadiationWatts/m^2,SoftwareType,DateUTC
2013-04-14 00:02:00,32.0,28.0,-100.00,South,184,6.0,14.0,86,0.00,,,0.11,0.000000,,2013-04-14 06:02:00,
2013-04-14 00:11:00,32.0,28.0,-100.00,South,184,6.0,14.0,86,0.00,,,0.11,0.000000,,2013-04-14 06:11:00,
2013-04-14 00:32:00,32.0,29.0,-100.00,WSW,247,5.0,11.0,90,0.00,,,0.11,0.000000,,2013-04-14 06:32:00,
2013-04-14 00:42:00,32.0,29.0,-100.00,WSW,247,5.0,11.0,90,0.00,,,0.11,0.000000,,2013-04-14 06:42:00,
2013-04-14 00:52:00,32.0,29.0,-100.00,WSW,247,5.0,11.0,90,0.00,,,0.11,0.000000,,2013-04-14 06:52:00,
2013-04-14 01:02:00,32.0,29.0,-100.00,WSW,247,5.0,11.0,90,0.00,,,0.11,0.000000,,2013-04-14 07:02:00,
2013-04-14 01:11:00,32.0,29.0,-100.00,WSW,247,5.0,11.0,90,0.00,,,0.11,0.000000,,2013-04-14 07:11:00,
2013-04-14 01:33:00,32.0,29.0,-100.00,SSW,212,5.0,9.0,88,0.00,,,0.11,0.000000,,2013-04-14 07:33:00,
2013-04-14 01:42:00,32.0,29.0,-100.00,SSW,212,5.0,9.0,88,0.00,,,0.11,0.000000,,2013-04-14 07:42:00,
2013-04-14 01:52:00,32.0,29.0,-100.00,SSW,212,5.0,9.0,88,0.00,,,0.11,0.000000,,2013-04-14 07:52:00,
2013-04-14 02:02:00,32.0,29.0,-100.00,SSW,212,5.0,9.0,88,0.00,,,0.11,0.000000,,2013-04-14 08:02:00,
2013-04-14 02:12:00,32.0,29.0,-100.00,SSW,212,5.0,9.0,88,0.00,,,0.11,0.000000,,2013-04-14 08:12:00,
2013-04-14 02:43:00,31.0,30.0,-100.00,South,174,4.0,9.0,96,0.00,,,0.11,0.000000,,2013-04-14 08:43:00,
2013-04-14 02:52:00,31.0,30.0,-100.00,South,174,4.0,9.0,96,0.00,,,0.11,0.000000,,2013-04-14 08:52:00,
2013-04-14 03:02:00,31.0,30.0,-100.00,South,174,4.0,9.0,96,0.00,,,0.11,0.000000,,2013-04-14 09:02:00,
2013-04-14 03:12:00,31.0,30.0,-100.00,South,174,4.0,9.0,96,0.00,,,0.11,0.000000,,2013-04-14 09:12:00,
2013-04-14 03:43:00,30.0,29.0,-100.00,SSW,211,2.0,6.0,97,0.00,,,0.11,0.000000,,2013-04-14 09:43:00,
2013-04-14 03:53:00,30.0,29.0,-100.00,SSW,211,2.0,6.0,97,0.00,,,0.11,0.000000,,2013-04-14 09:53:00,
2013-04-14 04:03:00,30.0,29.0,-100.00,SSW,211,2.0,6.0,97,0.00,,,0.11,0.000000,,2013-04-14 10:03:00,
2013-04-14 04:12:00,30.0,29.0,-100.00,SSW,211,2.0,6.0,97,0.00,,,0.11,0.000000,,2013-04-14 10:12:00,
2013-04-14 04:33:00,31.0,31.0,-100.00,South,189,2.0,4.0,98,0.00,,,0.04,0.000000,,2013-04-14 10:33:00,
2013-04-14 04:43:00,31.0,31.0,-100.00,South,189,2.0,4.0,98,0.00,,,0.04,0.000000,,2013-04-14 10:43:00,
2013-04-14 04:52:00,31.0,31.0,-100.00,South,189,2.0,4.0,98,0.00,,,0.04,0.000000,,2013-04-14 10:52:00,
2013-04-14 05:02:00,31.0,31.0,-100.00,South,189,2.0,4.0,98,0.00,,,0.04,0.000000,,2013-04-14 11:02:00,
2013-04-14 05:11:00,31.0,31.0,-100.00,South,189,2.0,4.0,98,0.00,,,0.04,0.000000,,2013-04-14 11:11:00,
2013-04-14 05:33:00,30.0,29.0,-100.00,South,176,3.0,7.0,95,0.00,,,0.02,0.000000,,2013-04-14 11:33:00,
2013-04-14 05:42:00,30.0,29.0,-100.00,South,176,3.0,7.0,95,0.00,,,0.02,0.000000,,2013-04-14 11:42:00,
2013-04-14 05:53:00,30.0,29.0,-100.00,South,176,3.0,7.0,95,0.00,,,0.02,0.000000,,2013-04-14 11:53:00,
2013-04-14 06:02:00,30.0,29.0,-100.00,South,176,3.0,7.0,95,0.00,,,0.02,0.000000,,2013-04-14 12:02:00,
2013-04-14 06:12:00,30.0,29.0,-100.00,South,176,3.0,7.0,95,0.00,,,0.02,0.000000,,2013-04-14 12:12:00,
2013-04-14 06:42:00,30.0,28.0,-100.00,SW,217,1.0,5.0,94,0.00,,,0.02,0.000000,,2013-04-14 12:42:00,
2013-04-14 06:52:00,30.0,28.0,-100.00,SW,217,1.0,5.0,94,0.00,,,0.02,0.000000,,2013-04-14 12:52:00,
2013-04-14 07:02:00,30.0,28.0,-100.00,SW,217,1.0,5.0,94,0.00,,,0.02,0.000000,,2013-04-14 13:02:00,
2013-04-14 07:12:00,30.0,28.0,-100.00,SW,217,1.0,5.0,94,0.00,,,0.02,0.000000,,2013-04-14 13:12:00,
2013-04-14 07:33:00,29.0,28.0,-100.00,SSW,205,2.0,5.0,96,0.00,,,0.01,1.000000,,2013-04-14 13:33:00,
2013-04-14 07:43:00,29.0,28.0,-100.00,SSW,205,2.0,5.0,96,0.00,,,0.01,1.000000,,2013-04-14 13:43:00,
2013-04-14 07:52:00,29.0,28.0,-100.00,SSW,205,2.0,5.0,96,0.00,,,0.01,1.000000,,2013-04-14 13:52:00,
2013-04-14 08:02:00,29.0,28.0,-100.00,SSW,205,2.0,5.0,96,0.00,,,0.01,1.000000,,2013-04-14 14:02:00,
2013-04-14 08:11:00,29.0,28.0,-100.00,SSW,205,2.0,5.0,96,0.00,,,0.01,1.000000,,2013-04-14 14:11:00,
2013-04-14 08:42:00,32.0,27.0,-100.00,SSE,147,3.0,6.0,80,0.00,,,0.00,25.000000,,2013-04-14 14:42:00,
2013-04-14 08:53:00,32.0,27.0,-100.00,SSE,147,3.0,6.0,80,0.00,,,0.00,25.000000,,2013-04-14 14:53:00,
2013-04-14 09:02:00,32.0,27.0,-100.00,SSE,147,3.0,6.0,80,0.00,,,0.00,25.000000,,2013-04-14 15:02:00,
2013-04-14 09:12:00,32.0,27.0,-100.00,SSE,147,3.0,6.0,80,0.00,,,0.00,25.000000,,2013-04-14 15:12:00,
2013-04-14 09:34:00,35.0,28.0,-100.00,SSE,156,4.0,7.0,75,0.00,,,0.00,78.000000,,2013-04-14 15:34:00,
2013-04-14 09:43:00,35.0,28.0,-100.00,SSE,156,4.0,7.0,75,0.00,,,0.00,78.000000,,2013-04-14 15:43:00,
2013-04-14 09:53:00,35.0,28.0,-100.00,SSE,156,4.0,7.0,75,0.00,,,0.00,78.000000,,2013-04-14 15:53:00,
2013-04-14 10:03:00,35.0,28.0,-100.00,SSE,156,4.0,7.0,75,0.00,,,0.00,78.000000,,2013-04-14 16:03:00,
2013-04-14 10:13:00,35.0,28.0,-100.00,SSE,156,4.0,7.0,75,0.00,,,0.00,78.000000,,2013-04-14 16:13:00,
2013-04-14 10:33:00,40.0,28.0,-100.00,SSW,204,3.0,6.0,63,0.07,,,0.07,327.000000,,2013-04-14 16:33:00,
2013-04-14 10:43:00,40.0,28.0,-100.00,SSW,204,3.0,6.0,63,0.07,,,0.07,327.000000,,2013-04-14 16:43:00,
2013-04-14 10:53:00,40.0,28.0,-100.00,SSW,204,3.0,6.0,63,0.07,,,0.07,327.000000,,2013-04-14 16:53:00,
2013-04-14 11:02:00,40.0,28.0,-100.00,SSW,204,3.0,6.0,63,0.07,,,0.07,327.000000,,2013-04-14 17:02:00,
2013-04-14 11:12:00,40.0,28.0,-100.00,SSW,204,3.0,6.0,63,0.07,,,0.07,327.000000,,2013-04-14 17:12:00,
2013-04-14 11:42:00,44.0,25.0,-100.00,NNW,338,4.0,7.0,46,0.00,,,0.07,565.000000,,2013-04-14 17:42:00,
2013-04-14 11:53:00,44.0,25.0,-100.00,NNW,338,4.0,7.0,46,0.00,,,0.07,565.000000,,2013-04-14 17:53:00,
2013-04-14 12:02:00,44.0,25.0,-100.00,NNW,338,4.0,7.0,46,0.00,,,0.07,565.000000,,2013-04-14 18:02:00,
2013-04-14 12:12:00,44.0,25.0,-100.00,NNW,338,4.0,7.0,46,0.00,,,0.07,565.000000,,2013-04-14 18:12:00,
2013-04-14 12:33:00,44.0,20.0,-100.00,ESE,105,5.0,9.0,38,0.00,,,0.07,704.000000,,2013-04-14 18:33:00,
2013-04-14 12:43:00,44.0,20.0,-100.00,ESE,105,5.0,9.0,38,0.00,,,0.07,704.000000,,2013-04-14 18:43:00,
2013-04-14 12:53:00,44.0,20.0,-100.00,ESE,105,5.0,9.0,38,0.00,,,0.07,704.000000,,2013-04-14 18:53:00,
2013-04-14 13:12:00,44.0,20.0,-100.00,ESE,105,5.0,9.0,38,0.00,,,0.07,704.000000,,2013-04-14 19:12:00,
2013-04-14 13:33:00,44.0,21.0,-100.00,SE,136,8.0,14.0,39,0.00,,,0.07,805.000000,,2013-04-14 19:33:00,
2013-04-14 13:43:00,44.0,21.0,-100.00,SE,136,8.0,14.0,39,0.00,,,0.07,805.000000,,2013-04-14 19:43:00,
2013-04-14 13:52:00,44.0,21.0,-100.00,SE,136,8.0,14.0,39,0.00,,,0.07,805.000000,,2013-04-14 19:52:00,
2013-04-14 14:02:00,44.0,21.0,-100.00,SE,136,8.0,14.0,39,0.00,,,0.07,805.000000,,2013-04-14 20:02:00,
2013-04-14 14:12:00,44.0,21.0,-100.00,SE,136,8.0,14.0,39,0.00,,,0.07,805.000000,,2013-04-14 20:12:00,
2013-04-14 14:43:00,51.0,24.0,-100.00,SSW,193,4.0,10.0,35,0.00,,,0.07,975.000000,,2013-04-14 20:43:00,
2013-04-14 14:52:00,51.0,24.0,-100.00,SSW,193,4.0,10.0,35,0.00,,,0.07,975.000000,,2013-04-14 20:52:00,
2013-04-14 15:43:00,44.0,29.0,-100.00,North,9,14.0,23.0,55,-99.99,,,0.08,867.000000,,2013-04-14 21:43:00,
2013-04-14 15:53:00,44.0,29.0,-100.00,North,9,14.0,23.0,55,-99.99,,,0.08,867.000000,,2013-04-14 21:53:00,
2013-04-14 16:02:00,44.0,29.0,-100.00,North,9,14.0,23.0,55,-99.99,,,0.08,867.000000,,2013-04-14 22:02:00,
2013-04-14 16:12:00,44.0,29.0,-100.00,North,9,14.0,23.0,55,-99.99,,,0.08,867.000000,,2013-04-14 22:12:00,
2013-04-14 16:44:00,38.0,27.0,-100.00,NNE,13,14.0,22.0,65,0.00,,,0.08,659.000000,,2013-04-14 22:44:00,
2013-04-14 16:52:00,38.0,27.0,-100.00,NNE,13,14.0,22.0,65,0.00,,,0.08,659.000000,,2013-04-14 22:52:00,
2013-04-14 17:02:00,38.0,27.0,-100.00,NNE,13,14.0,22.0,65,0.00,,,0.08,659.000000,,2013-04-14 23:02:00,
2013-04-14 17:12:00,38.0,27.0,-100.00,NNE,13,14.0,22.0,65,0.00,,,0.08,659.000000,,2013-04-14 23:12:00,
2013-04-14 17:33:00,44.0,28.0,-100.00,North,358,8.0,22.0,53,0.00,,,0.08,598.000000,,2013-04-14 23:33:00,
2013-04-14 17:43:00,44.0,28.0,-100.00,North,358,8.0,22.0,53,0.00,,,0.08,598.000000,,2013-04-14 23:43:00,
2013-04-14 17:53:00,44.0,28.0,-100.00,North,358,8.0,22.0,53,0.00,,,0.08,598.000000,,2013-04-14 23:53:00,
2013-04-14 18:02:00,44.0,28.0,-100.00,North,358,8.0,22.0,53,0.00,,,0.08,598.000000,,2013-04-15 00:02:00,
2013-04-14 18:12:00,44.0,28.0,-100.00,North,358,8.0,22.0,53,0.00,,,0.08,598.000000,,2013-04-15 00:12:00,
2013-04-14 18:33:00,38.0,27.0,-100.00,NW,321,7.0,17.0,63,0.00,,,-99.99,389.000000,,2013-04-15 00:33:00,
2013-04-14 18:42:00,38.0,27.0,-100.00,NW,321,7.0,17.0,63,0.00,,,-99.99,389.000000,,2013-04-15 00:42:00,
2013-04-14 18:52:00,38.0,27.0,-100.00,NW,321,7.0,17.0,63,0.00,,,-99.99,389.000000,,2013-04-15 00:52:00,
2013-04-14 19:02:00,38.0,27.0,-100.00,NW,321,7.0,17.0,63,0.00,,,-99.99,389.000000,,2013-04-15 01:02:00,
2013-04-14 19:12:00,38.0,27.0,-100.00,NW,321,7.0,17.0,63,0.00,,,-99.99,389.000000,,2013-04-15 01:12:00,
2013-04-14 19:42:00,35.0,27.0,-100.00,NW,308,5.0,11.0,73,0.00,,,0.08,88.000000,,2013-04-15 01:42:00,
2013-04-14 19:52:00,35.0,27.0,-100.00,NW,308,5.0,11.0,73,0.00,,,0.08,88.000000,,2013-04-15 01:52:00,
2013-04-14 20:02:00,35.0,27.0,-100.00,NW,308,5.0,11.0,73,0.00,,,0.08,88.000000,,2013-04-15 02:02:00,
2013-04-14 20:12:00,35.0,27.0,-100.00,NW,308,5.0,11.0,73,0.00,,,0.08,88.000000,,2013-04-15 02:12:00,
2013-04-14 20:32:00,32.0,26.0,-100.00,NNE,25,4.0,6.0,77,0.00,,,0.08,43.000000,,2013-04-15 02:32:00,
2013-04-14 20:42:00,32.0,26.0,-100.00,NNE,25,4.0,6.0,77,0.00,,,0.08,43.000000,,2013-04-15 02:42:00,
2013-04-14 20:52:00,32.0,26.0,-100.00,NNE,25,4.0,6.0,77,0.00,,,0.08,43.000000,,2013-04-15 02:52:00,
2013-04-14 21:02:00,32.0,26.0,-100.00,NNE,25,4.0,6.0,77,0.00,,,0.08,43.000000,,2013-04-15 03:02:00,
2013-04-14 21:11:00,32.0,26.0,-100.00,NNE,25,4.0,6.0,77,0.00,,,0.08,43.000000,,2013-04-15 03:11:00,
2013-04-14 21:43:00,31.0,25.0,-100.00,NW,325,3.0,6.0,78,0.00,,,0.08,2.000000,,2013-04-15 03:43:00,
2013-04-14 21:54:00,31.0,25.0,-100.00,NW,325,3.0,6.0,78,0.00,,,0.08,2.000000,,2013-04-15 03:54:00,
2013-04-14 22:02:00,31.0,25.0,-100.00,NW,325,3.0,6.0,78,0.00,,,0.08,2.000000,,2013-04-15 04:02:00,
2013-04-14 22:12:00,31.0,25.0,-100.00,NW,325,3.0,6.0,78,0.00,,,0.08,2.000000,,2013-04-15 04:12:00,
2013-04-14 22:33:00,35.0,29.0,-100.00,NNE,16,11.0,15.0,79,0.00,,,0.08,0.000000,,2013-04-15 04:33:00,
2013-04-14 22:43:00,35.0,29.0,-100.00,NNE,16,11.0,15.0,79,0.00,,,0.08,0.000000,,2013-04-15 04:43:00,
2013-04-14 22:52:00,35.0,29.0,-100.00,NNE,16,11.0,15.0,79,0.00,,,0.08,0.000000,,2013-04-15 04:52:00,
2013-04-14 23:02:00,35.0,29.0,-100.00,NNE,16,11.0,15.0,79,0.00,,,0.08,0.000000,,2013-04-15 05:02:00,
2013-04-14 23:12:00,35.0,29.0,-100.00,NNE,16,11.0,15.0,79,0.00,,,0.08,0.000000,,2013-04-15 05:12:00,
2013-04-14 23:33:00,33.0,23.0,-100.00,North,356,6.0,14.0,67,0.00,,,0.08,0.000000,,2013-04-15 05:33:00,
2013-04-14 23:43:00,33.0,23.0,-100.00,North,356,6.0,14.0,67,0.00,,,0.08,0.000000,,2013-04-15 05:43:00,
2013-04-14 23:52:00,33.0,23.0,-100.00,North,356,6.0,14.0,67,0.00,,,0.08,0.000000,,2013-04-15 05:52:00,